sensor_id;sensor_type;location;lat;lon;timestamp;P1;durP1;ratioP1;P2;durP2;ratioP2
817;SDS011;391;51.052;6.954;2022-11-21T00:01:48;10.17;;;3.03;;
817;SDS011;391;51.052;6.954;2022-11-21T00:03:52;9.93;;;3.27;;
817;SDS011;391;51.052;6.954;2022-11-21T00:05:55;6.83;;;3.77;;
817;SDS011;391;51.052;6.954;2022-11-21T00:07:58;6.40;;;3.57;;
817;SDS011;391;51.052;6.954;2022-11-21T00:10:02;11.60;;;4.30;;
817;SDS011;391;51.052;6.954;2022-11-21T00:12:06;10.57;;;3.27;;
817;SDS011;391;51.052;6.954;2022-11-21T00:14:09;12.97;;;3.23;;
817;SDS011;391;51.052;6.954;2022-11-21T00:16:14;7.93;;;2.67;;
817;SDS011;391;51.052;6.954;2022-11-21T00:18:18;8.23;;;3.03;;
817;SDS011;391;51.052;6.954;2022-11-21T00:20:21;12.10;;;4.00;;
817;SDS011;391;51.052;6.954;2022-11-21T00:22:25;13.13;;;3.13;;
817;SDS011;391;51.052;6.954;2022-11-21T00:24:28;6.93;;;3.13;;
817;SDS011;391;51.052;6.954;2022-11-21T00:26:32;4.90;;;3.00;;
817;SDS011;391;51.052;6.954;2022-11-21T00:28:35;7.40;;;3.30;;
817;SDS011;391;51.052;6.954;2022-11-21T00:30:39;11.10;;;3.50;;
817;SDS011;391;51.052;6.954;2022-11-21T00:32:43;18.47;;;4.20;;
817;SDS011;391;51.052;6.954;2022-11-21T00:34:47;12.67;;;3.30;;
817;SDS011;391;51.052;6.954;2022-11-21T00:36:50;7.17;;;2.57;;
817;SDS011;391;51.052;6.954;2022-11-21T00:38:54;6.93;;;3.57;;
817;SDS011;391;51.052;6.954;2022-11-21T00:40:57;7.90;;;2.90;;
817;SDS011;391;51.052;6.954;2022-11-21T00:43:00;11.60;;;3.67;;
817;SDS011;391;51.052;6.954;2022-11-21T00:45:05;14.13;;;2.87;;
817;SDS011;391;51.052;6.954;2022-11-21T00:47:08;7.20;;;2.90;;
817;SDS011;391;51.052;6.954;2022-11-21T00:49:13;11.43;;;3.43;;
817;SDS011;391;51.052;6.954;2022-11-21T00:51:17;7.00;;;2.43;;
817;SDS011;391;51.052;6.954;2022-11-21T00:53:20;5.40;;;2.37;;
817;SDS011;391;51.052;6.954;2022-11-21T00:55:23;8.17;;;2.83;;
817;SDS011;391;51.052;6.954;2022-11-21T00:57:27;11.00;;;4.13;;
817;SDS011;391;51.052;6.954;2022-11-21T00:59:31;5.10;;;2.50;;
817;SDS011;391;51.052;6.954;2022-11-21T01:01:34;9.10;;;3.67;;
817;SDS011;391;51.052;6.954;2022-11-21T01:03:38;10.10;;;4.40;;
817;SDS011;391;51.052;6.954;2022-11-21T01:05:43;6.50;;;3.10;;
817;SDS011;391;51.052;6.954;2022-11-21T01:07:47;9.87;;;3.27;;
817;SDS011;391;51.052;6.954;2022-11-21T01:09:51;8.00;;;3.33;;
817;SDS011;391;51.052;6.954;2022-11-21T01:11:54;7.80;;;3.63;;
817;SDS011;391;51.052;6.954;2022-11-21T01:13:58;13.10;;;3.80;;
817;SDS011;391;51.052;6.954;2022-11-21T01:16:02;9.13;;;3.53;;
817;SDS011;391;51.052;6.954;2022-11-21T01:18:06;6.10;;;3.47;;
817;SDS011;391;51.052;6.954;2022-11-21T01:20:11;7.33;;;3.47;;
817;SDS011;391;51.052;6.954;2022-11-21T01:22:16;14.20;;;4.43;;
817;SDS011;391;51.052;6.954;2022-11-21T01:24:19;10.97;;;3.67;;
817;SDS011;391;51.052;6.954;2022-11-21T01:26:23;8.00;;;3.17;;
817;SDS011;391;51.052;6.954;2022-11-21T01:28:28;13.10;;;4.13;;
817;SDS011;391;51.052;6.954;2022-11-21T01:30:31;9.93;;;4.50;;
817;SDS011;391;51.052;6.954;2022-11-21T01:32:34;5.63;;;3.27;;
817;SDS011;391;51.052;6.954;2022-11-21T01:34:38;8.80;;;4.13;;
817;SDS011;391;51.052;6.954;2022-11-21T01:36:41;13.53;;;5.23;;
817;SDS011;391;51.052;6.954;2022-11-21T01:38:47;9.37;;;4.33;;
817;SDS011;391;51.052;6.954;2022-11-21T01:40:51;9.23;;;3.93;;
817;SDS011;391;51.052;6.954;2022-11-21T01:42:57;11.67;;;4.20;;
817;SDS011;391;51.052;6.954;2022-11-21T01:47:40;8.37;;;3.80;;
817;SDS011;391;51.052;6.954;2022-11-21T01:49:45;8.83;;;4.17;;
817;SDS011;391;51.052;6.954;2022-11-21T01:51:49;19.90;;;5.00;;
817;SDS011;391;51.052;6.954;2022-11-21T01:53:59;10.40;;;4.07;;
817;SDS011;391;51.052;6.954;2022-11-21T01:56:06;8.27;;;3.83;;
817;SDS011;391;51.052;6.954;2022-11-21T01:58:11;9.70;;;5.10;;
817;SDS011;391;51.052;6.954;2022-11-21T02:00:16;6.33;;;3.67;;
817;SDS011;391;51.052;6.954;2022-11-21T02:02:27;16.00;;;5.70;;
817;SDS011;391;51.052;6.954;2022-11-21T02:04:33;12.43;;;5.90;;
817;SDS011;391;51.052;6.954;2022-11-21T02:06:39;6.93;;;4.87;;
817;SDS011;391;51.052;6.954;2022-11-21T02:08:42;8.27;;;4.00;;
817;SDS011;391;51.052;6.954;2022-11-21T02:10:51;9.43;;;5.17;;
817;SDS011;391;51.052;6.954;2022-11-21T02:13:00;8.73;;;5.70;;
817;SDS011;391;51.052;6.954;2022-11-21T02:15:05;12.37;;;4.87;;
817;SDS011;391;51.052;6.954;2022-11-21T02:17:09;8.33;;;4.50;;
817;SDS011;391;51.052;6.954;2022-11-21T02:19:14;6.40;;;4.47;;
817;SDS011;391;51.052;6.954;2022-11-21T02:21:26;7.70;;;4.23;;
817;SDS011;391;51.052;6.954;2022-11-21T02:23:39;12.47;;;7.30;;
817;SDS011;391;51.052;6.954;2022-11-21T02:25:48;10.07;;;7.73;;
817;SDS011;391;51.052;6.954;2022-11-21T02:27:54;18.20;;;7.57;;
817;SDS011;391;51.052;6.954;2022-11-21T02:30:00;13.07;;;8.73;;
817;SDS011;391;51.052;6.954;2022-11-21T02:32:06;12.00;;;7.90;;
817;SDS011;391;51.052;6.954;2022-11-21T02:34:10;13.37;;;8.83;;
817;SDS011;391;51.052;6.954;2022-11-21T02:36:30;17.67;;;10.00;;
817;SDS011;391;51.052;6.954;2022-11-21T02:38:39;10.30;;;8.97;;
817;SDS011;391;51.052;6.954;2022-11-21T02:40:46;14.70;;;10.60;;
817;SDS011;391;51.052;6.954;2022-11-21T02:42:56;11.83;;;8.17;;
817;SDS011;391;51.052;6.954;2022-11-21T02:45:06;13.13;;;10.23;;
817;SDS011;391;51.052;6.954;2022-11-21T02:47:16;13.20;;;11.07;;
817;SDS011;391;51.052;6.954;2022-11-21T02:49:21;13.23;;;11.23;;
817;SDS011;391;51.052;6.954;2022-11-21T02:51:32;15.40;;;12.20;;
817;SDS011;391;51.052;6.954;2022-11-21T02:53:36;14.97;;;11.70;;
817;SDS011;391;51.052;6.954;2022-11-21T02:55:40;20.87;;;11.27;;
817;SDS011;391;51.052;6.954;2022-11-21T02:57:45;16.27;;;11.70;;
817;SDS011;391;51.052;6.954;2022-11-21T02:59:48;20.60;;;15.93;;
817;SDS011;391;51.052;6.954;2022-11-21T03:01:52;18.03;;;13.47;;
817;SDS011;391;51.052;6.954;2022-11-21T03:03:59;17.00;;;12.57;;
817;SDS011;391;51.052;6.954;2022-11-21T03:06:02;16.40;;;12.40;;
817;SDS011;391;51.052;6.954;2022-11-21T03:08:06;18.87;;;12.50;;
817;SDS011;391;51.052;6.954;2022-11-21T03:10:11;18.73;;;12.73;;
817;SDS011;391;51.052;6.954;2022-11-21T03:12:15;20.30;;;12.20;;
817;SDS011;391;51.052;6.954;2022-11-21T03:14:25;15.73;;;11.03;;
817;SDS011;391;51.052;6.954;2022-11-21T03:16:28;13.10;;;10.70;;
817;SDS011;391;51.052;6.954;2022-11-21T03:18:32;14.77;;;12.13;;
817;SDS011;391;51.052;6.954;2022-11-21T03:20:36;17.33;;;13.37;;
817;SDS011;391;51.052;6.954;2022-11-21T03:22:39;17.10;;;13.07;;
817;SDS011;391;51.052;6.954;2022-11-21T03:24:42;22.00;;;13.30;;
817;SDS011;391;51.052;6.954;2022-11-21T03:26:46;16.83;;;13.77;;
817;SDS011;391;51.052;6.954;2022-11-21T03:28:50;19.40;;;14.03;;
817;SDS011;391;51.052;6.954;2022-11-21T03:30:55;20.40;;;13.93;;
817;SDS011;391;51.052;6.954;2022-11-21T03:32:58;21.00;;;14.63;;
817;SDS011;391;51.052;6.954;2022-11-21T03:35:02;23.23;;;15.60;;
817;SDS011;391;51.052;6.954;2022-11-21T03:37:06;22.73;;;16.00;;
817;SDS011;391;51.052;6.954;2022-11-21T03:39:09;18.83;;;14.30;;
817;SDS011;391;51.052;6.954;2022-11-21T03:41:13;25.17;;;13.60;;
817;SDS011;391;51.052;6.954;2022-11-21T03:43:30;19.50;;;14.90;;
817;SDS011;391;51.052;6.954;2022-11-21T03:45:33;17.07;;;12.37;;
817;SDS011;391;51.052;6.954;2022-11-21T03:47:39;19.50;;;12.90;;
817;SDS011;391;51.052;6.954;2022-11-21T03:49:43;26.53;;;15.10;;
817;SDS011;391;51.052;6.954;2022-11-21T03:51:46;20.77;;;14.93;;
817;SDS011;391;51.052;6.954;2022-11-21T03:53:50;19.37;;;12.93;;
817;SDS011;391;51.052;6.954;2022-11-21T03:55:54;17.27;;;12.67;;
817;SDS011;391;51.052;6.954;2022-11-21T03:57:57;16.70;;;12.20;;
817;SDS011;391;51.052;6.954;2022-11-21T04:00:00;19.93;;;14.20;;
817;SDS011;391;51.052;6.954;2022-11-21T04:02:05;20.23;;;13.43;;
817;SDS011;391;51.052;6.954;2022-11-21T04:04:10;19.33;;;13.27;;
817;SDS011;391;51.052;6.954;2022-11-21T04:06:15;19.37;;;13.13;;
817;SDS011;391;51.052;6.954;2022-11-21T04:08:20;14.60;;;12.00;;
817;SDS011;391;51.052;6.954;2022-11-21T04:10:24;17.50;;;13.00;;
817;SDS011;391;51.052;6.954;2022-11-21T04:12:28;17.50;;;12.13;;
817;SDS011;391;51.052;6.954;2022-11-21T04:14:34;21.83;;;14.70;;
817;SDS011;391;51.052;6.954;2022-11-21T04:16:39;17.20;;;13.10;;
817;SDS011;391;51.052;6.954;2022-11-21T04:18:49;16.87;;;12.10;;
817;SDS011;391;51.052;6.954;2022-11-21T04:20:57;19.67;;;13.17;;
817;SDS011;391;51.052;6.954;2022-11-21T04:23:01;18.23;;;14.00;;
817;SDS011;391;51.052;6.954;2022-11-21T04:25:06;23.77;;;17.00;;
817;SDS011;391;51.052;6.954;2022-11-21T04:27:10;15.83;;;11.37;;
817;SDS011;391;51.052;6.954;2022-11-21T04:29:13;28.47;;;16.33;;
817;SDS011;391;51.052;6.954;2022-11-21T04:31:17;18.80;;;13.37;;
817;SDS011;391;51.052;6.954;2022-11-21T04:33:20;21.70;;;14.97;;
817;SDS011;391;51.052;6.954;2022-11-21T04:35:24;29.57;;;16.60;;
817;SDS011;391;51.052;6.954;2022-11-21T04:37:30;24.07;;;13.83;;
817;SDS011;391;51.052;6.954;2022-11-21T04:39:34;25.20;;;16.10;;
817;SDS011;391;51.052;6.954;2022-11-21T04:41:37;24.87;;;14.53;;
817;SDS011;391;51.052;6.954;2022-11-21T04:43:40;28.30;;;17.13;;
817;SDS011;391;51.052;6.954;2022-11-21T04:45:44;18.50;;;13.80;;
817;SDS011;391;51.052;6.954;2022-11-21T04:47:48;22.23;;;15.47;;
817;SDS011;391;51.052;6.954;2022-11-21T04:49:51;20.90;;;13.60;;
817;SDS011;391;51.052;6.954;2022-11-21T04:51:54;24.53;;;16.43;;
817;SDS011;391;51.052;6.954;2022-11-21T04:53:59;17.97;;;14.17;;
817;SDS011;391;51.052;6.954;2022-11-21T04:56:03;16.10;;;12.60;;
817;SDS011;391;51.052;6.954;2022-11-21T04:58:07;23.33;;;15.03;;
817;SDS011;391;51.052;6.954;2022-11-21T05:00:11;20.83;;;12.70;;
817;SDS011;391;51.052;6.954;2022-11-21T05:02:22;19.77;;;14.80;;
817;SDS011;391;51.052;6.954;2022-11-21T05:04:26;19.30;;;14.27;;
817;SDS011;391;51.052;6.954;2022-11-21T05:06:31;22.63;;;13.80;;
817;SDS011;391;51.052;6.954;2022-11-21T05:08:34;20.70;;;13.27;;
817;SDS011;391;51.052;6.954;2022-11-21T05:10:39;22.60;;;12.93;;
817;SDS011;391;51.052;6.954;2022-11-21T05:13:00;24.43;;;13.50;;
817;SDS011;391;51.052;6.954;2022-11-21T05:15:21;24.23;;;13.77;;
817;SDS011;391;51.052;6.954;2022-11-21T05:17:27;20.77;;;14.90;;
817;SDS011;391;51.052;6.954;2022-11-21T05:19:31;20.03;;;12.90;;
817;SDS011;391;51.052;6.954;2022-11-21T05:21:34;23.70;;;12.40;;
817;SDS011;391;51.052;6.954;2022-11-21T05:23:38;22.03;;;12.83;;
817;SDS011;391;51.052;6.954;2022-11-21T05:25:43;19.40;;;11.70;;
817;SDS011;391;51.052;6.954;2022-11-21T05:27:46;17.20;;;12.87;;
817;SDS011;391;51.052;6.954;2022-11-21T05:29:50;13.37;;;11.00;;
817;SDS011;391;51.052;6.954;2022-11-21T05:31:54;22.30;;;13.23;;
817;SDS011;391;51.052;6.954;2022-11-21T05:34:02;17.90;;;12.30;;
817;SDS011;391;51.052;6.954;2022-11-21T05:36:05;19.67;;;13.30;;
817;SDS011;391;51.052;6.954;2022-11-21T05:38:09;17.73;;;10.60;;
817;SDS011;391;51.052;6.954;2022-11-21T05:40:14;16.57;;;11.67;;
817;SDS011;391;51.052;6.954;2022-11-21T05:42:19;21.33;;;12.73;;
817;SDS011;391;51.052;6.954;2022-11-21T05:44:44;31.50;;;17.53;;
817;SDS011;391;51.052;6.954;2022-11-21T05:46:47;20.67;;;15.40;;
817;SDS011;391;51.052;6.954;2022-11-21T05:48:51;26.47;;;19.10;;
817;SDS011;391;51.052;6.954;2022-11-21T05:50:55;28.17;;;17.37;;
817;SDS011;391;51.052;6.954;2022-11-21T05:53:00;26.43;;;17.90;;
817;SDS011;391;51.052;6.954;2022-11-21T05:55:04;24.37;;;17.97;;
817;SDS011;391;51.052;6.954;2022-11-21T05:57:08;22.60;;;15.40;;
817;SDS011;391;51.052;6.954;2022-11-21T05:59:14;21.13;;;15.90;;
817;SDS011;391;51.052;6.954;2022-11-21T06:01:17;22.03;;;15.30;;
817;SDS011;391;51.052;6.954;2022-11-21T06:03:41;21.63;;;14.23;;
817;SDS011;391;51.052;6.954;2022-11-21T06:05:44;26.37;;;16.07;;
817;SDS011;391;51.052;6.954;2022-11-21T06:07:47;25.77;;;16.40;;
817;SDS011;391;51.052;6.954;2022-11-21T06:09:51;30.27;;;18.37;;
817;SDS011;391;51.052;6.954;2022-11-21T06:11:54;21.30;;;14.47;;
817;SDS011;391;51.052;6.954;2022-11-21T06:13:58;29.83;;;19.50;;
817;SDS011;391;51.052;6.954;2022-11-21T06:16:04;28.73;;;17.67;;
817;SDS011;391;51.052;6.954;2022-11-21T06:18:08;32.50;;;21.77;;
817;SDS011;391;51.052;6.954;2022-11-21T06:20:12;22.87;;;16.60;;
817;SDS011;391;51.052;6.954;2022-11-21T06:22:15;32.33;;;18.97;;
817;SDS011;391;51.052;6.954;2022-11-21T06:24:19;40.70;;;21.17;;
817;SDS011;391;51.052;6.954;2022-11-21T06:26:23;26.63;;;16.67;;
817;SDS011;391;51.052;6.954;2022-11-21T06:28:31;36.73;;;20.70;;
817;SDS011;391;51.052;6.954;2022-11-21T06:30:36;24.70;;;16.70;;
817;SDS011;391;51.052;6.954;2022-11-21T06:32:41;33.33;;;18.50;;
817;SDS011;391;51.052;6.954;2022-11-21T06:34:44;31.30;;;19.80;;
817;SDS011;391;51.052;6.954;2022-11-21T06:36:48;35.17;;;19.63;;
817;SDS011;391;51.052;6.954;2022-11-21T06:38:52;32.90;;;19.70;;
817;SDS011;391;51.052;6.954;2022-11-21T06:40:56;33.40;;;19.50;;
817;SDS011;391;51.052;6.954;2022-11-21T06:42:59;30.67;;;18.63;;
817;SDS011;391;51.052;6.954;2022-11-21T06:45:03;33.93;;;18.30;;
817;SDS011;391;51.052;6.954;2022-11-21T06:47:07;34.40;;;21.67;;
817;SDS011;391;51.052;6.954;2022-11-21T06:49:12;29.47;;;17.80;;
817;SDS011;391;51.052;6.954;2022-11-21T06:51:16;39.50;;;20.70;;
817;SDS011;391;51.052;6.954;2022-11-21T06:53:20;28.77;;;19.00;;
817;SDS011;391;51.052;6.954;2022-11-21T06:55:24;23.33;;;17.70;;
817;SDS011;391;51.052;6.954;2022-11-21T06:57:28;27.30;;;17.50;;
817;SDS011;391;51.052;6.954;2022-11-21T06:59:33;27.30;;;15.63;;
817;SDS011;391;51.052;6.954;2022-11-21T07:01:36;26.30;;;16.30;;
817;SDS011;391;51.052;6.954;2022-11-21T07:03:40;28.53;;;17.83;;
817;SDS011;391;51.052;6.954;2022-11-21T07:05:45;21.03;;;13.47;;
817;SDS011;391;51.052;6.954;2022-11-21T07:07:49;17.93;;;10.83;;
817;SDS011;391;51.052;6.954;2022-11-21T07:09:53;22.57;;;13.57;;
817;SDS011;391;51.052;6.954;2022-11-21T07:11:56;20.97;;;16.13;;
817;SDS011;391;51.052;6.954;2022-11-21T07:14:20;25.57;;;15.73;;
817;SDS011;391;51.052;6.954;2022-11-21T07:16:23;26.53;;;14.73;;
817;SDS011;391;51.052;6.954;2022-11-21T07:18:27;21.13;;;13.63;;
817;SDS011;391;51.052;6.954;2022-11-21T07:20:31;29.20;;;18.30;;
817;SDS011;391;51.052;6.954;2022-11-21T07:22:36;21.27;;;12.80;;
817;SDS011;391;51.052;6.954;2022-11-21T07:24:40;13.33;;;9.87;;
817;SDS011;391;51.052;6.954;2022-11-21T07:26:43;11.30;;;9.93;;
817;SDS011;391;51.052;6.954;2022-11-21T07:28:47;12.73;;;7.80;;
817;SDS011;391;51.052;6.954;2022-11-21T07:30:50;15.63;;;9.10;;
817;SDS011;391;51.052;6.954;2022-11-21T07:32:57;9.30;;;7.30;;
817;SDS011;391;51.052;6.954;2022-11-21T07:35:02;7.37;;;6.67;;
817;SDS011;391;51.052;6.954;2022-11-21T07:37:05;10.13;;;6.97;;
817;SDS011;391;51.052;6.954;2022-11-21T07:39:10;7.47;;;6.07;;
817;SDS011;391;51.052;6.954;2022-11-21T07:41:14;8.90;;;6.37;;
817;SDS011;391;51.052;6.954;2022-11-21T07:43:19;8.20;;;6.80;;
817;SDS011;391;51.052;6.954;2022-11-21T07:45:22;9.20;;;7.40;;
817;SDS011;391;51.052;6.954;2022-11-21T07:47:26;10.77;;;7.47;;
817;SDS011;391;51.052;6.954;2022-11-21T07:49:29;7.53;;;5.80;;
817;SDS011;391;51.052;6.954;2022-11-21T07:51:33;8.07;;;6.97;;
817;SDS011;391;51.052;6.954;2022-11-21T07:53:36;7.47;;;5.63;;
817;SDS011;391;51.052;6.954;2022-11-21T07:55:41;7.80;;;6.47;;
817;SDS011;391;51.052;6.954;2022-11-21T07:57:45;7.60;;;5.77;;
817;SDS011;391;51.052;6.954;2022-11-21T07:59:48;7.20;;;6.50;;
817;SDS011;391;51.052;6.954;2022-11-21T08:01:52;9.87;;;6.77;;
817;SDS011;391;51.052;6.954;2022-11-21T08:03:56;11.90;;;6.17;;
817;SDS011;391;51.052;6.954;2022-11-21T08:06:00;9.00;;;6.37;;
817;SDS011;391;51.052;6.954;2022-11-21T08:08:05;13.57;;;7.87;;
817;SDS011;391;51.052;6.954;2022-11-21T08:10:09;12.30;;;7.60;;
817;SDS011;391;51.052;6.954;2022-11-21T08:12:14;6.87;;;6.23;;
817;SDS011;391;51.052;6.954;2022-11-21T08:14:18;11.10;;;6.20;;
817;SDS011;391;51.052;6.954;2022-11-21T08:16:21;7.73;;;6.57;;
817;SDS011;391;51.052;6.954;2022-11-21T08:18:29;7.93;;;5.40;;
817;SDS011;391;51.052;6.954;2022-11-21T08:20:33;6.20;;;4.83;;
817;SDS011;391;51.052;6.954;2022-11-21T08:22:37;12.30;;;5.93;;
817;SDS011;391;51.052;6.954;2022-11-21T08:24:41;6.30;;;5.70;;
817;SDS011;391;51.052;6.954;2022-11-21T08:26:45;12.97;;;6.90;;
817;SDS011;391;51.052;6.954;2022-11-21T08:28:51;9.53;;;7.13;;
817;SDS011;391;51.052;6.954;2022-11-21T08:31:02;8.33;;;7.40;;
817;SDS011;391;51.052;6.954;2022-11-21T08:33:07;7.60;;;6.80;;
817;SDS011;391;51.052;6.954;2022-11-21T08:35:11;10.43;;;8.10;;
817;SDS011;391;51.052;6.954;2022-11-21T08:37:14;9.57;;;7.37;;
817;SDS011;391;51.052;6.954;2022-11-21T08:39:18;14.73;;;7.67;;
817;SDS011;391;51.052;6.954;2022-11-21T08:41:22;7.73;;;7.03;;
817;SDS011;391;51.052;6.954;2022-11-21T08:43:43;8.87;;;7.27;;
817;SDS011;391;51.052;6.954;2022-11-21T08:45:48;9.37;;;7.73;;
817;SDS011;391;51.052;6.954;2022-11-21T08:47:51;13.60;;;7.80;;
817;SDS011;391;51.052;6.954;2022-11-21T08:49:55;7.73;;;6.90;;
817;SDS011;391;51.052;6.954;2022-11-21T08:51:58;10.83;;;8.20;;
817;SDS011;391;51.052;6.954;2022-11-21T08:54:02;6.93;;;6.33;;
817;SDS011;391;51.052;6.954;2022-11-21T08:56:06;11.00;;;7.27;;
817;SDS011;391;51.052;6.954;2022-11-21T08:58:10;14.93;;;7.10;;
817;SDS011;391;51.052;6.954;2022-11-21T09:00:14;10.50;;;7.70;;
817;SDS011;391;51.052;6.954;2022-11-21T09:02:19;9.57;;;7.13;;
817;SDS011;391;51.052;6.954;2022-11-21T09:04:22;8.57;;;6.30;;
817;SDS011;391;51.052;6.954;2022-11-21T09:06:26;8.07;;;7.20;;
817;SDS011;391;51.052;6.954;2022-11-21T09:08:29;11.27;;;7.97;;
817;SDS011;391;51.052;6.954;2022-11-21T09:10:33;8.03;;;6.43;;
817;SDS011;391;51.052;6.954;2022-11-21T09:12:36;9.50;;;8.33;;
817;SDS011;391;51.052;6.954;2022-11-21T09:14:40;12.17;;;7.40;;
817;SDS011;391;51.052;6.954;2022-11-21T09:17:01;9.73;;;8.27;;
817;SDS011;391;51.052;6.954;2022-11-21T09:19:37;7.23;;;6.27;;
817;SDS011;391;51.052;6.954;2022-11-21T09:21:41;7.07;;;6.37;;
817;SDS011;391;51.052;6.954;2022-11-21T09:23:44;9.87;;;7.47;;
817;SDS011;391;51.052;6.954;2022-11-21T09:25:48;9.10;;;6.00;;
817;SDS011;391;51.052;6.954;2022-11-21T09:27:51;8.10;;;7.30;;
817;SDS011;391;51.052;6.954;2022-11-21T09:29:54;12.30;;;7.90;;
817;SDS011;391;51.052;6.954;2022-11-21T09:31:58;7.80;;;6.83;;
817;SDS011;391;51.052;6.954;2022-11-21T09:34:01;11.50;;;7.57;;
817;SDS011;391;51.052;6.954;2022-11-21T09:36:06;8.47;;;7.40;;
817;SDS011;391;51.052;6.954;2022-11-21T09:38:10;8.43;;;7.37;;
817;SDS011;391;51.052;6.954;2022-11-21T09:40:14;8.60;;;6.87;;
817;SDS011;391;51.052;6.954;2022-11-21T09:42:25;8.60;;;7.00;;
817;SDS011;391;51.052;6.954;2022-11-21T09:47:10;12.50;;;7.27;;
817;SDS011;391;51.052;6.954;2022-11-21T09:49:23;16.20;;;12.20;;
817;SDS011;391;51.052;6.954;2022-11-21T09:51:29;10.73;;;7.70;;
817;SDS011;391;51.052;6.954;2022-11-21T09:53:34;8.63;;;6.90;;
817;SDS011;391;51.052;6.954;2022-11-21T09:55:41;8.43;;;7.63;;
817;SDS011;391;51.052;6.954;2022-11-21T09:57:48;9.17;;;6.43;;
817;SDS011;391;51.052;6.954;2022-11-21T09:59:52;12.17;;;7.57;;
817;SDS011;391;51.052;6.954;2022-11-21T10:01:58;12.30;;;7.40;;
817;SDS011;391;51.052;6.954;2022-11-21T10:04:01;7.63;;;6.60;;
817;SDS011;391;51.052;6.954;2022-11-21T10:06:10;7.77;;;5.80;;
817;SDS011;391;51.052;6.954;2022-11-21T10:08:22;8.73;;;7.83;;
817;SDS011;391;51.052;6.954;2022-11-21T10:10:36;9.43;;;6.97;;
817;SDS011;391;51.052;6.954;2022-11-21T10:12:55;7.70;;;7.00;;
817;SDS011;391;51.052;6.954;2022-11-21T10:15:23;8.43;;;6.40;;
817;SDS011;391;51.052;6.954;2022-11-21T10:17:36;6.43;;;5.77;;
817;SDS011;391;51.052;6.954;2022-11-21T10:19:56;9.33;;;7.17;;
817;SDS011;391;51.052;6.954;2022-11-21T10:22:29;6.40;;;5.80;;
817;SDS011;391;51.052;6.954;2022-11-21T10:24:53;7.13;;;5.10;;
817;SDS011;391;51.052;6.954;2022-11-21T10:26:59;9.00;;;5.90;;
817;SDS011;391;51.052;6.954;2022-11-21T10:29:08;5.93;;;5.37;;
817;SDS011;391;51.052;6.954;2022-11-21T10:31:18;8.10;;;5.63;;
817;SDS011;391;51.052;6.954;2022-11-21T10:33:24;8.03;;;5.90;;
817;SDS011;391;51.052;6.954;2022-11-21T10:35:34;10.73;;;6.67;;
817;SDS011;391;51.052;6.954;2022-11-21T10:37:43;7.70;;;5.93;;
817;SDS011;391;51.052;6.954;2022-11-21T10:39:49;7.70;;;5.37;;
817;SDS011;391;51.052;6.954;2022-11-21T10:41:57;8.17;;;6.53;;
817;SDS011;391;51.052;6.954;2022-11-21T10:44:03;6.93;;;5.70;;
817;SDS011;391;51.052;6.954;2022-11-21T10:46:52;5.80;;;5.20;;
817;SDS011;391;51.052;6.954;2022-11-21T10:48:58;7.23;;;5.73;;
817;SDS011;391;51.052;6.954;2022-11-21T10:51:06;8.80;;;5.70;;
817;SDS011;391;51.052;6.954;2022-11-21T10:53:20;7.63;;;5.50;;
817;SDS011;391;51.052;6.954;2022-11-21T10:55:48;9.10;;;6.10;;
817;SDS011;391;51.052;6.954;2022-11-21T10:58:02;7.33;;;5.40;;
817;SDS011;391;51.052;6.954;2022-11-21T11:00:20;5.47;;;5.00;;
817;SDS011;391;51.052;6.954;2022-11-21T11:02:26;6.87;;;4.40;;
817;SDS011;391;51.052;6.954;2022-11-21T11:04:30;6.77;;;4.10;;
817;SDS011;391;51.052;6.954;2022-11-21T11:06:48;3.70;;;3.40;;
817;SDS011;391;51.052;6.954;2022-11-21T11:08:51;3.00;;;2.70;;
817;SDS011;391;51.052;6.954;2022-11-21T11:11:00;10.37;;;2.70;;
817;SDS011;391;51.052;6.954;2022-11-21T11:13:13;5.90;;;3.37;;
817;SDS011;391;51.052;6.954;2022-11-21T11:15:53;5.57;;;3.50;;
817;SDS011;391;51.052;6.954;2022-11-21T11:18:00;2.50;;;2.30;;
817;SDS011;391;51.052;6.954;2022-11-21T11:20:29;6.53;;;3.20;;
817;SDS011;391;51.052;6.954;2022-11-21T11:22:40;4.43;;;2.50;;
817;SDS011;391;51.052;6.954;2022-11-21T11:24:43;3.67;;;2.90;;
817;SDS011;391;51.052;6.954;2022-11-21T11:27:01;5.00;;;2.90;;
817;SDS011;391;51.052;6.954;2022-11-21T11:29:12;5.40;;;2.60;;
817;SDS011;391;51.052;6.954;2022-11-21T11:31:17;6.37;;;2.83;;
817;SDS011;391;51.052;6.954;2022-11-21T11:33:27;6.40;;;3.17;;
817;SDS011;391;51.052;6.954;2022-11-21T11:35:32;2.70;;;1.70;;
817;SDS011;391;51.052;6.954;2022-11-21T11:37:38;2.97;;;2.57;;
817;SDS011;391;51.052;6.954;2022-11-21T11:39:44;2.57;;;2.03;;
817;SDS011;391;51.052;6.954;2022-11-21T11:44:52;11.20;;;5.77;;
817;SDS011;391;51.052;6.954;2022-11-21T11:47:27;10.43;;;6.37;;
817;SDS011;391;51.052;6.954;2022-11-21T11:49:35;8.17;;;3.20;;
817;SDS011;391;51.052;6.954;2022-11-21T11:51:59;4.10;;;2.87;;
817;SDS011;391;51.052;6.954;2022-11-21T11:54:07;3.63;;;2.50;;
817;SDS011;391;51.052;6.954;2022-11-21T11:56:15;4.03;;;2.13;;
817;SDS011;391;51.052;6.954;2022-11-21T11:58:23;2.43;;;2.23;;
817;SDS011;391;51.052;6.954;2022-11-21T12:00:34;3.30;;;1.77;;
817;SDS011;391;51.052;6.954;2022-11-21T12:02:46;3.23;;;1.93;;
817;SDS011;391;51.052;6.954;2022-11-21T12:04:54;2.70;;;1.53;;
817;SDS011;391;51.052;6.954;2022-11-21T12:07:01;3.70;;;1.53;;
817;SDS011;391;51.052;6.954;2022-11-21T12:09:29;3.23;;;1.70;;
817;SDS011;391;51.052;6.954;2022-11-21T12:11:44;2.30;;;1.40;;
817;SDS011;391;51.052;6.954;2022-11-21T12:14:12;1.60;;;1.20;;
817;SDS011;391;51.052;6.954;2022-11-21T12:16:42;2.80;;;1.70;;
817;SDS011;391;51.052;6.954;2022-11-21T12:18:47;2.17;;;1.27;;
817;SDS011;391;51.052;6.954;2022-11-21T12:20:57;2.50;;;1.13;;
817;SDS011;391;51.052;6.954;2022-11-21T12:23:08;1.47;;;1.00;;
817;SDS011;391;51.052;6.954;2022-11-21T12:25:12;2.50;;;1.13;;
817;SDS011;391;51.052;6.954;2022-11-21T12:27:18;3.57;;;1.53;;
817;SDS011;391;51.052;6.954;2022-11-21T12:29:33;2.20;;;1.10;;
817;SDS011;391;51.052;6.954;2022-11-21T12:31:56;2.53;;;1.10;;
817;SDS011;391;51.052;6.954;2022-11-21T12:34:14;3.57;;;1.10;;
817;SDS011;391;51.052;6.954;2022-11-21T12:36:28;1.67;;;1.00;;
817;SDS011;391;51.052;6.954;2022-11-21T12:38:45;2.00;;;1.30;;
817;SDS011;391;51.052;6.954;2022-11-21T12:41:00;1.67;;;1.20;;
817;SDS011;391;51.052;6.954;2022-11-21T12:43:35;2.70;;;1.30;;
817;SDS011;391;51.052;6.954;2022-11-21T12:45:45;5.93;;;3.93;;
817;SDS011;391;51.052;6.954;2022-11-21T12:51:24;1.63;;;1.37;;
817;SDS011;391;51.052;6.954;2022-11-21T12:54:04;2.47;;;1.00;;
817;SDS011;391;51.052;6.954;2022-11-21T12:56:36;3.27;;;1.23;;
817;SDS011;391;51.052;6.954;2022-11-21T12:58:48;3.10;;;0.90;;
817;SDS011;391;51.052;6.954;2022-11-21T13:00:59;1.67;;;1.07;;
817;SDS011;391;51.052;6.954;2022-11-21T13:05:45;1.93;;;1.10;;
817;SDS011;391;51.052;6.954;2022-11-21T13:07:56;2.70;;;1.00;;
817;SDS011;391;51.052;6.954;2022-11-21T13:10:03;2.03;;;1.20;;
817;SDS011;391;51.052;6.954;2022-11-21T13:12:09;2.70;;;1.53;;
817;SDS011;391;51.052;6.954;2022-11-21T13:14:18;3.17;;;2.33;;
817;SDS011;391;51.052;6.954;2022-11-21T13:16:28;2.97;;;1.80;;
817;SDS011;391;51.052;6.954;2022-11-21T13:18:45;2.20;;;1.50;;
817;SDS011;391;51.052;6.954;2022-11-21T13:20:51;2.13;;;1.33;;
817;SDS011;391;51.052;6.954;2022-11-21T13:22:57;2.03;;;1.30;;
817;SDS011;391;51.052;6.954;2022-11-21T13:25:02;3.90;;;1.43;;
817;SDS011;391;51.052;6.954;2022-11-21T13:27:05;1.67;;;1.23;;
817;SDS011;391;51.052;6.954;2022-11-21T13:29:11;1.77;;;1.33;;
817;SDS011;391;51.052;6.954;2022-11-21T13:31:28;3.27;;;1.43;;
817;SDS011;391;51.052;6.954;2022-11-21T13:33:44;2.40;;;1.27;;
817;SDS011;391;51.052;6.954;2022-11-21T13:38:03;2.00;;;1.10;;
817;SDS011;391;51.052;6.954;2022-11-21T13:42:46;2.50;;;1.40;;
817;SDS011;391;51.052;6.954;2022-11-21T13:45:38;2.67;;;1.00;;